Time;durP1;ratioP1;P1;durP2;ratioP2;P2;SDS_P1;SDS_P2;PMS_P1;PMS_P2;Temp;Humidity;BMP_temperature;BMP_pressure;BME280_temperature;BME280_humidity;BME280_pressure;Samples;Min_cycle;Max_cycle;Signal;HPM_P1;HPM_P2
2021/04/29 00:00:04;;;;;;;4.60;3.30;;;;;;;24.07;39.64;94604.31;5039318;28;20388;-84
2021/04/29 00:02:30;;;;;;;4.95;3.20;;;;;;;23.97;40.11;94611.41;5039556;28;20037;-84
2021/04/29 00:04:55;;;;;;;4.55;3.47;;;;;;;24.02;39.88;94613.31;5021982;28;20389;-84
2021/04/29 00:07:21;;;;;;;3.67;3.30;;;;;;;23.99;39.90;94608.91;5040080;28;20032;-83
2021/04/29 00:09:46;;;;;;;4.63;3.40;;;;;;;24.01;39.93;94603.66;5036921;28;20029;-83
2021/04/29 00:12:11;;;;;;;5.00;3.42;;;;;;;24.01;40.08;94600.94;5039189;28;20025;-84
2021/04/29 00:14:37;;;;;;;4.95;3.70;;;;;;;24.00;39.93;94598.72;5037766;28;20033;-84
2021/04/29 00:17:02;;;;;;;4.50;3.22;;;;;;;23.98;39.88;94599.25;5039881;28;20037;-84
2021/04/29 00:19:28;;;;;;;4.63;3.30;;;;;;;23.95;40.18;94603.03;5039412;28;20397;-83
2021/04/29 00:21:53;;;;;;;5.05;3.20;;;;;;;23.97;39.95;94600.50;5038586;28;20022;-84
2021/04/29 00:24:19;;;;;;;4.03;3.15;;;;;;;23.97;39.82;94605.97;5040849;28;20107;-84
2021/04/29 00:26:45;;;;;;;3.78;3.00;;;;;;;23.96;39.85;94604.50;5039377;28;20423;-84
2021/04/29 00:29:10;;;;;;;4.20;3.40;;;;;;;23.82;40.15;94587.91;5039864;28;20965;-83
2021/04/29 00:31:36;;;;;;;3.72;3.28;;;;;;;23.93;40.05;94594.63;5036826;28;20029;-83
2021/04/29 00:34:01;;;;;;;4.45;3.40;;;;;;;23.94;39.84;94612.47;5037051;28;20507;-83
2021/04/29 00:36:28;;;;;;;4.68;3.40;;;;;;;23.91;40.42;94605.31;5037074;28;20083;-83
2021/04/29 00:38:54;;;;;;;4.38;3.28;;;;;;;23.89;40.64;94610.56;5037123;28;20037;-84
2021/04/29 00:41:19;;;;;;;4.38;3.17;;;;;;;23.77;40.23;94586.03;5037981;28;20028;-83
2021/04/29 00:43:45;;;;;;;4.95;3.38;;;;;;;23.90;40.16;94601.13;5036538;28;20032;-84
2021/04/29 00:46:13;;;;;;;3.80;3.13;;;;;;;23.88;40.07;94594.72;5038003;28;20055;-83
2021/04/29 00:48:42;;;;;;;5.25;3.40;;;;;;;23.88;40.16;94603.66;5037610;28;20033;-83
2021/04/29 00:51:07;;;;;;;4.28;3.15;;;;;;;23.90;40.33;94605.84;5037636;28;20086;-83
2021/04/29 00:53:36;;;;;;;4.53;3.30;;;;;;;23.85;39.97;94597.78;5038544;28;20046;-83
2021/04/29 00:56:01;;;;;;;4.80;3.60;;;;;;;23.83;40.28;94597.56;5037326;28;20028;-83
2021/04/29 00:58:26;;;;;;;5.07;3.22;;;;;;;23.61;40.51;94557.00;5037724;28;20431;-83
2021/04/29 01:00:52;;;;;;;3.72;2.97;;;;;;;23.87;40.14;94607.63;5037020;28;20025;-83
2021/04/29 01:03:18;;;;;;;4.25;3.35;;;;;;;23.59;40.30;94565.72;5038224;28;20029;-83
2021/04/29 01:05:49;;;;;;;4.75;3.42;;;;;;;23.87;40.57;94612.38;5027663;28;20067;-82
2021/04/29 01:08:39;;;;;;;3.78;2.95;;;;;;;23.81;40.36;94608.25;5020152;28;20037;-84
2021/04/29 01:11:25;;;;;;;4.55;3.40;;;;;;;23.59;40.45;94581.34;5038257;28;20068;-83
2021/04/29 01:13:52;;;;;;;4.05;3.20;;;;;;;23.63;40.33;94581.75;5038339;28;20053;-83
2021/04/29 01:16:18;;;;;;;5.35;3.25;;;;;;;23.83;40.28;94611.94;5036230;28;21053;-84
2021/04/29 01:18:44;;;;;;;4.78;3.17;;;;;;;23.57;40.34;94578.38;5053180;28;20111;-83
2021/04/29 01:21:12;;;;;;;5.22;3.25;;;;;;;23.84;40.34;94623.56;5037075;28;20025;-83
2021/04/29 01:23:41;;;;;;;3.80;3.08;;;;;;;23.82;40.46;94620.63;5035847;28;20037;-83
2021/04/29 01:26:30;;;;;;;3.95;3.00;;;;;;;23.83;40.53;94627.56;5036884;28;20025;-83
2021/04/29 01:28:56;;;;;;;4.10;3.20;;;;;;;23.80;40.54;94620.44;5033654;28;20049;-84
2021/04/29 01:31:24;;;;;;;4.53;3.30;;;;;;;23.66;40.50;94618.91;5037511;28;20075;-83
2021/04/29 01:33:51;;;;;;;4.88;3.25;;;;;;;23.52;40.64;94592.84;5036390;28;20047;-83
2021/04/29 01:36:16;;;;;;;3.97;3.08;;;;;;;23.52;40.56;94592.84;5037407;28;20431;-83
2021/04/29 01:38:42;;;;;;;4.47;3.25;;;;;;;23.51;40.55;94580.47;5036791;28;20029;-84
2021/04/29 01:41:08;;;;;;;4.80;3.20;;;;;;;23.30;40.60;94560.47;5019639;28;20051;-83
2021/04/29 01:43:33;;;;;;;3.78;2.70;;;;;;;23.49;40.49;94585.72;5037270;28;20033;-83
2021/04/29 01:46:01;;;;;;;3.97;3.08;;;;;;;23.81;40.50;94630.81;5022376;28;20079;-83
2021/04/29 01:48:26;;;;;;;4.32;3.10;;;;;;;23.81;40.34;94624.59;5032396;28;20025;-82
2021/04/29 01:50:51;;;;;;;4.25;2.85;;;;;;;23.80;40.55;94628.59;5042015;28;20040;-83
2021/04/29 01:53:17;;;;;;;4.85;3.17;;;;;;;23.80;40.64;94629.34;5040978;28;20028;-84
2021/04/29 01:55:42;;;;;;;4.07;3.38;;;;;;;23.63;40.70;94603.56;5041230;28;20035;-84
2021/04/29 01:58:08;;;;;;;4.43;3.35;;;;;;;23.77;40.40;94624.19;5040632;28;20040;-83
2021/04/29 02:00:33;;;;;;;4.53;2.90;;;;;;;23.78;40.75;94622.91;5039756;28;20033;-84
2021/04/29 02:02:59;;;;;;;3.85;3.08;;;;;;;23.75;40.72;94626.69;5040501;28;20425;-83
2021/04/29 02:05:25;;;;;;;4.25;2.88;;;;;;;23.74;40.53;94630.69;5043519;28;20029;-82
2021/04/29 02:07:50;;;;;;;4.32;3.00;;;;;;;23.71;40.93;94626.28;5042091;28;20030;-83
2021/04/29 02:10:17;;;;;;;4.10;3.00;;;;;;;23.72;40.92;94622.28;5040854;28;20032;-84
2021/04/29 02:12:45;;;;;;;4.10;3.30;;;;;;;23.72;40.78;94623.03;5041010;28;20549;-84
2021/04/29 02:15:11;;;;;;;3.60;2.85;;;;;;;23.48;40.73;94586.94;5057262;28;20059;-84
2021/04/29 02:17:44;;;;;;;4.65;3.20;;;;;;;23.73;40.51;94629.22;5039268;28;20029;-84
2021/04/29 02:20:11;;;;;;;3.47;2.45;;;;;;;23.72;40.93;94625.00;5040026;28;20025;-84
2021/04/29 02:22:39;;;;;;;4.40;2.97;;;;;;;23.44;40.82;94581.81;5042323;28;20036;-84
2021/04/29 02:25:05;;;;;;;4.50;3.38;;;;;;;23.71;40.92;94621.53;5022613;28;20037;-84
2021/04/29 02:27:30;;;;;;;4.15;3.03;;;;;;;23.67;40.77;94625.84;5040439;28;20574;-84
2021/04/29 02:29:56;;;;;;;3.95;2.97;;;;;;;23.66;40.86;94613.44;5039880;28;20063;-83
2021/04/29 02:32:21;;;;;;;4.43;3.08;;;;;;;23.71;40.62;94631.72;5040217;28;20083;-84
2021/04/29 02:34:46;;;;;;;4.88;3.20;;;;;;;23.69;40.83;94634.22;5030667;28;20053;-83
2021/04/29 02:37:13;;;;;;;4.55;2.90;;;;;;;23.40;40.64;94586.09;5055788;28;20029;-85
2021/04/29 02:39:38;;;;;;;3.85;2.88;;;;;;;23.70;40.69;94635.69;5023453;28;20032;-84
2021/04/29 02:42:04;;;;;;;3.80;2.72;;;;;;;23.71;40.68;94637.19;5039436;28;20025;-84
2021/04/29 02:44:29;;;;;;;4.32;3.50;;;;;;;23.69;40.98;94634.22;5038775;28;20124;-84
2021/04/29 02:46:55;;;;;;;3.75;2.90;;;;;;;23.38;40.89;94594.06;5038369;28;20025;-84
2021/04/29 02:49:20;;;;;;;4.68;3.38;;;;;;;23.70;41.01;94641.16;5036624;28;20029;-84
2021/04/29 02:51:46;;;;;;;3.80;3.00;;;;;;;23.58;40.86;94624.19;5039288;28;20033;-83
2021/04/29 02:54:11;;;;;;;3.45;2.88;;;;;;;23.69;41.11;94631.50;5040510;28;20428;-84
2021/04/29 02:56:40;;;;;;;5.13;3.40;;;;;;;23.68;40.81;94638.22;5030788;28;20025;-83
2021/04/29 02:59:06;;;;;;;3.90;3.10;;;;;;;23.62;40.69;94640.28;5039529;28;20029;-84
2021/04/29 03:01:32;;;;;;;3.08;2.67;;;;;;;23.63;41.21;94636.25;5040244;28;20471;-84
2021/04/29 03:03:58;;;;;;;3.83;2.95;;;;;;;23.66;40.76;94646.16;5038328;28;20039;-84
2021/04/29 03:06:23;;;;;;;4.05;2.83;;;;;;;23.66;40.82;94641.47;5040445;28;20037;-83
2021/04/29 03:08:50;;;;;;;4.35;2.92;;;;;;;23.63;40.85;94647.94;5040193;28;20456;-84
2021/04/29 03:11:15;;;;;;;4.32;2.80;;;;;;;23.44;40.99;94619.25;5039409;28;20051;-84
2021/04/29 03:13:41;;;;;;;4.03;3.08;;;;;;;23.63;41.05;94641.72;5040945;28;20478;-84
2021/04/29 03:16:06;;;;;;;3.45;2.90;;;;;;;23.37;40.93;94612.38;5040975;28;20477;-83
2021/04/29 03:18:31;;;;;;;3.67;2.78;;;;;;;23.56;40.95;94642.34;5040268;28;20109;-85
2021/04/29 03:20:57;;;;;;;3.60;2.90;;;;;;;23.65;40.88;94658.34;5040082;28;20527;-84
2021/04/29 03:23:22;;;;;;;4.80;3.05;;;;;;;23.55;41.07;94643.59;5040549;28;20778;-84
2021/04/29 03:25:48;;;;;;;3.83;2.92;;;;;;;23.64;40.79;94665.03;5038218;28;20029;-83
2021/04/29 03:28:14;;;;;;;3.42;2.42;;;;;;;23.62;41.43;94662.06;5022442;28;20116;-85
2021/04/29 03:30:39;;;;;;;3.45;2.72;;;;;;;23.56;41.05;94658.69;5039963;28;20398;-83
2021/04/29 03:33:06;;;;;;;3.63;2.90;;;;;;;23.63;40.96;94663.53;5051361;28;20040;-83
2021/04/29 03:35:31;;;;;;;3.35;2.72;;;;;;;23.62;41.18;94672.97;5039682;28;20098;-78
2021/04/29 03:37:57;;;;;;;3.97;2.78;;;;;;;23.67;41.17;94680.34;5036271;28;20498;-84
2021/04/29 03:40:22;;;;;;;4.05;2.97;;;;;;;23.36;41.77;94645.59;5052405;28;20566;-75
2021/04/29 03:42:48;;;;;;;4.10;2.80;;;;;;;23.68;41.74;94681.84;5021565;28;20017;-75
2021/04/29 03:45:13;;;;;;;3.90;3.08;;;;;;;23.38;41.76;94648.56;5033319;28;20025;-75
2021/04/29 03:47:39;;;;;;;4.95;2.72;;;;;;;23.66;41.71;94689.78;5035590;28;20025;-75
2021/04/29 03:50:05;;;;;;;3.20;2.70;;;;;;;23.60;41.46;94680.91;5036316;28;20028;-75
2021/04/29 03:52:31;;;;;;;3.65;2.70;;;;;;;23.66;41.55;94674.19;5051092;28;20025;-74
2021/04/29 03:54:56;;;;;;;3.80;2.40;;;;;;;23.80;41.67;94694.06;5030553;28;20036;-74
2021/04/29 03:57:21;;;;;;;3.20;2.35;;;;;;;23.82;41.55;94686.06;5034325;28;20468;-75
2021/04/29 03:59:47;;;;;;;3.60;2.65;;;;;;;23.86;41.40;94693.44;5050135;28;20029;-77
2021/04/29 04:02:12;;;;;;;4.47;3.08;;;;;;;24.04;41.05;94686.44;5005382;28;20610;-77
2021/04/29 04:04:38;;;;;;;4.55;2.75;;;;;;;24.07;41.18;94680.69;5034494;28;20511;-75
2021/04/29 04:07:03;;;;;;;3.83;2.80;;;;;;;24.24;41.17;94697.50;5033187;28;20029;-76
2021/04/29 04:09:29;;;;;;;3.85;2.72;;;;;;;23.92;40.33;94658.63;5035446;28;20436;-74
2021/04/29 04:11:54;;;;;;;3.38;2.67;;;;;;;24.42;40.99;94705.66;5034659;28;20064;-75
2021/04/29 04:14:20;;;;;;;4.13;2.92;;;;;;;24.49;40.50;94704.28;5033061;28;20029;-76
2021/04/29 04:16:45;;;;;;;3.45;2.55;;;;;;;24.34;40.33;94681.50;5016483;28;20563;-76
2021/04/29 04:19:11;;;;;;;3.28;2.53;;;;;;;24.51;40.55;94690.84;5035303;28;20047;-77
2021/04/29 04:21:36;;;;;;;3.63;2.83;;;;;;;24.39;40.34;94667.75;5021806;28;20029;-76
2021/04/29 04:24:02;;;;;;;4.32;2.45;;;;;;;24.89;39.85;94707.22;5034618;28;20501;-77
2021/04/29 04:26:27;;;;;;;3.22;2.70;;;;;;;24.94;40.19;94711.84;5034738;28;20025;-75
2021/04/29 04:28:54;;;;;;;2.63;2.35;;;;;;;25.06;39.58;94710.41;5034679;28;20408;-75
2021/04/29 04:31:19;;;;;;;3.70;2.78;;;;;;;25.08;39.87;94699.69;5034983;28;20783;-76
2021/04/29 04:33:45;;;;;;;2.83;2.25;;;;;;;24.85;39.02;94654.91;5033623;28;20029;-74
2021/04/29 04:36:10;;;;;;;3.75;2.60;;;;;;;25.07;39.58;94692.75;5033906;28;20071;-77
2021/04/29 04:38:37;;;;;;;4.15;2.60;;;;;;;25.41;38.62;94718.09;5000292;28;20592;-76
2021/04/29 04:41:03;;;;;;;4.28;2.65;;;;;;;25.44;38.51;94719.78;5043788;28;20040;-76
2021/04/29 04:43:29;;;;;;;3.28;2.55;;;;;;;25.18;38.43;94681.56;5034819;28;20363;-76
2021/04/29 04:45:54;;;;;;;3.28;2.08;;;;;;;25.59;38.44;94730.88;5036176;28;20067;-75
2021/04/29 04:48:20;;;;;;;3.10;2.30;;;;;;;25.66;38.50;94741.22;5034583;28;20024;-75
2021/04/29 04:50:45;;;;;;;3.75;2.53;;;;;;;25.73;38.18;94737.84;5032556;28;20032;-76
2021/04/29 04:53:11;;;;;;;3.50;3.00;;;;;;;25.55;38.38;94698.41;5033753;28;21378;-75
2021/04/29 04:55:42;;;;;;;2.80;2.30;;;;;;;25.75;38.42;94727.81;5033533;28;20040;-76
2021/04/29 04:58:07;;;;;;;3.28;2.65;;;;;;;25.50;38.07;94679.38;5051217;28;20402;-80
2021/04/29 05:00:33;;;;;;;3.28;2.20;;;;;;;25.65;37.89;94690.50;5034339;28;20037;-75
2021/04/29 05:02:58;;;;;;;3.22;2.22;;;;;;;25.98;38.36;94735.00;5035801;28;20067;-76
2021/04/29 05:05:24;;;;;;;4.97;2.65;;;;;;;26.02;38.42;94740.88;5034030;28;20804;-76
2021/04/29 05:07:49;;;;;;;3.08;2.60;;;;;;;26.05;38.02;94726.13;5036851;28;20440;-76
2021/04/29 05:10:15;;;;;;;3.38;2.38;;;;;;;26.07;38.25;94731.78;5033973;28;20037;-76
2021/04/29 05:12:40;;;;;;;3.75;2.90;;;;;;;26.15;38.15;94738.06;5035934;28;20043;-73
2021/04/29 05:15:06;;;;;;;3.15;2.60;;;;;;;26.22;38.02;94742.88;5034603;28;20028;-74
2021/04/29 05:17:32;;;;;;;3.25;2.30;;;;;;;26.32;37.82;94741.16;5036879;28;20037;-76
2021/04/29 05:19:57;;;;;;;3.22;2.53;;;;;;;26.33;37.68;94737.88;5037209;28;20052;-76
2021/04/29 05:22:23;;;;;;;3.63;2.30;;;;;;;26.21;37.67;94714.03;5040044;28;20079;-77
2021/04/29 05:24:48;;;;;;;2.65;2.15;;;;;;;26.27;37.78;94733.78;5038754;28;20033;-75
2021/04/29 05:27:14;;;;;;;2.78;2.35;;;;;;;26.21;37.45;94708.56;5039307;28;20009;-75
2021/04/29 05:29:39;;;;;;;4.15;3.30;;;;;;;26.38;40.33;94741.75;5040692;28;20029;-73
2021/04/29 05:32:05;;;;;;;4.60;2.90;;;;;;;26.30;38.86;94733.47;5061493;28;20033;-80
2021/04/29 05:34:32;;;;;;;4.43;2.53;;;;;;;26.15;39.35;94705.22;5060439;28;20026;-83
2021/04/29 05:36:58;;;;;;;3.05;2.40;;;;;;;26.35;39.42;94707.22;5049109;28;20052;-81
2021/04/29 05:39:23;;;;;;;4.57;2.40;;;;;;;26.61;40.08;94750.91;5067665;28;20037;-79
2021/04/29 05:41:49;;;;;;;3.00;2.25;;;;;;;26.52;39.30;94748.66;5057842;28;20392;-82
2021/04/29 05:44:14;;;;;;;2.60;2.20;;;;;;;26.58;39.32;94757.47;5070572;28;20516;-79
2021/04/29 05:46:41;;;;;;;2.75;2.33;;;;;;;26.35;39.09;94735.38;5027988;28;20027;-81
2021/04/29 05:49:07;;;;;;;2.83;2.17;;;;;;;26.44;38.91;94747.84;5051824;28;20032;-76
2021/04/29 05:51:32;;;;;;;3.60;2.40;;;;;;;26.49;38.86;94749.72;5044844;28;20033;-78
2021/04/29 05:53:58;;;;;;;3.25;2.40;;;;;;;26.56;38.98;94754.50;5038162;28;20412;-78
2021/04/29 05:56:23;;;;;;;3.03;2.33;;;;;;;26.54;38.89;94757.06;5035303;28;20040;-78
2021/04/29 05:58:48;;;;;;;2.53;2.33;;;;;;;26.66;38.43;94769.91;5041414;28;20032;-81
2021/04/29 06:01:14;;;;;;;4.18;2.83;;;;;;;26.68;38.31;94769.38;5036863;28;20033;-77
2021/04/29 06:03:40;;;;;;;2.80;2.20;;;;;;;26.71;38.12;94760.09;5032285;28;20025;-75
2021/04/29 06:06:05;;;;;;;3.63;2.38;;;;;;;26.70;38.42;94764.84;5039871;28;20033;-75
2021/04/29 06:08:31;;;;;;;3.40;2.38;;;;;;;26.80;38.01;94763.84;5037018;28;20056;-78
2021/04/29 06:10:56;;;;;;;2.78;2.28;;;;;;;26.83;37.70;94762.75;5039362;28;20032;-77
2021/04/29 06:13:22;;;;;;;2.88;2.20;;;;;;;26.83;37.83;94768.22;5036497;28;20029;-77
2021/04/29 06:15:47;;;;;;;3.15;2.40;;;;;;;26.79;37.43;94762.34;5037877;28;20024;-76
2021/04/29 06:18:13;;;;;;;3.17;2.40;;;;;;;26.76;37.36;94763.44;5039032;28;20029;-76
2021/04/29 06:20:38;;;;;;;4.00;2.63;;;;;;;26.71;37.79;94762.84;5053043;28;20393;-76
2021/04/29 06:23:04;;;;;;;2.90;2.50;;;;;;;26.87;37.53;94779.56;5039102;28;20496;-75
2021/04/29 06:25:29;;;;;;;3.47;2.50;;;;;;;26.89;37.33;94771.59;5038112;28;20507;-75
2021/04/29 06:27:56;;;;;;;3.80;2.80;;;;;;;26.91;37.37;94769.03;5035207;28;20022;-76
2021/04/29 06:30:22;;;;;;;2.70;2.25;;;;;;;26.87;37.46;94763.13;5020589;28;20063;-73
2021/04/29 06:32:47;;;;;;;2.65;2.25;;;;;;;26.99;37.27;94775.28;5035643;28;20537;-75
2021/04/29 06:35:13;;;;;;;2.85;2.42;;;;;;;26.74;37.32;94742.59;5035848;28;20056;-74
2021/04/29 06:37:38;;;;;;;2.80;2.17;;;;;;;27.07;37.19;94772.59;5036708;28;20025;-77
2021/04/29 06:40:05;;;;;;;3.08;2.40;;;;;;;26.94;37.01;94746.03;5036290;28;20020;-78
2021/04/29 06:42:31;;;;;;;3.90;2.65;;;;;;;27.15;37.04;94781.63;5036170;28;20072;-78
2021/04/29 06:44:56;;;;;;;3.33;2.55;;;;;;;27.11;37.21;94771.00;5034816;28;20774;-77
2021/04/29 06:47:23;;;;;;;5.13;2.30;;;;;;;27.07;37.28;94776.09;5024829;28;20114;-77
2021/04/29 06:49:49;;;;;;;3.22;2.75;;;;;;;26.81;37.52;94754.31;5053295;28;20035;-80
2021/04/29 06:52:17;;;;;;;3.67;2.80;;;;;;;26.84;37.28;94780.66;5036956;28;20021;-74
2021/04/29 06:54:46;;;;;;;4.75;2.75;;;;;;;26.94;37.47;94773.44;5036926;28;20033;-77
2021/04/29 06:57:12;;;;;;;49.90;17.83;;;;;;;26.83;36.67;94759.25;5037771;28;20040;-73
2021/04/29 06:59:37;;;;;;;21.20;9.45;;;;;;;26.63;37.75;94767.53;5037989;28;20103;-72
2021/04/29 07:02:03;;;;;;;13.93;6.07;;;;;;;26.72;37.37;94767.06;5037861;28;20383;-72
2021/04/29 07:04:28;;;;;;;16.40;9.05;;;;;;;26.31;37.29;94729.47;5037994;28;20037;-74
2021/04/29 07:06:53;;;;;;;18.02;8.82;;;;;;;26.68;36.75;94748.22;5037054;28;20075;-77
2021/04/29 07:09:19;;;;;;;18.92;10.85;;;;;;;26.74;36.58;94764.50;5035562;28;20037;-74
2021/04/29 07:11:44;;;;;;;16.10;10.32;;;;;;;26.68;36.76;94761.91;5038515;28;20017;-74
2021/04/29 07:14:10;;;;;;;21.45;12.35;;;;;;;26.15;37.05;94705.22;5038214;28;20561;-75
2021/04/29 07:16:35;;;;;;;19.85;12.85;;;;;;;26.53;37.01;94772.00;5036033;28;20021;-74
2021/04/29 07:19:01;;;;;;;25.27;13.60;;;;;;;26.48;36.78;94764.66;5036496;28;20028;-75
2021/04/29 07:21:26;;;;;;;20.65;13.52;;;;;;;26.42;36.88;94755.84;5036387;28;20393;-75
2021/04/29 07:23:52;;;;;;;19.40;13.38;;;;;;;26.45;37.23;94771.22;5037161;28;20026;-74
2021/04/29 07:26:17;;;;;;;22.35;14.65;;;;;;;26.21;37.41;94751.63;5034887;28;20037;-75
2021/04/29 07:28:43;;;;;;;21.35;14.95;;;;;;;26.37;37.62;94767.69;5034668;28;20128;-83
2021/04/29 07:31:09;;;;;;;23.98;14.57;;;;;;;26.05;37.70;94728.13;5035910;28;20041;-79
2021/04/29 07:33:34;;;;;;;22.50;14.80;;;;;;;26.38;38.06;94760.94;5024249;28;20561;-76
2021/04/29 07:36:00;;;;;;;28.58;17.02;;;;;;;26.28;38.01;94757.94;5015654;28;20033;-75
2021/04/29 07:38:25;;;;;;;21.67;14.27;;;;;;;25.67;38.53;94759.84;5016549;28;20026;-75
2021/04/29 07:40:50;;;;;;;25.33;16.05;;;;;;;25.21;39.47;94734.47;5016637;28;20025;-74
2021/04/29 07:43:17;;;;;;;26.50;17.08;;;;;;;25.10;39.33;94729.22;5015972;28;20087;-75
2021/04/29 07:45:42;;;;;;;24.98;17.63;;;;;;;25.10;39.78;94757.28;5032502;28;20425;-75
2021/04/29 07:48:08;;;;;;;25.15;16.80;;;;;;;24.82;39.84;94759.75;5016610;28;20480;-74
2021/04/29 07:50:33;;;;;;;26.33;17.45;;;;;;;24.71;40.23;94725.72;5017318;28;20053;-75
2021/04/29 07:52:59;;;;;;;25.25;17.60;;;;;;;25.01;40.09;94754.97;5017624;28;20029;-75
2021/04/29 07:55:25;;;;;;;28.23;16.45;;;;;;;24.67;40.43;94753.34;5015162;28;20520;-76
2021/04/29 07:57:50;;;;;;;23.13;16.27;;;;;;;24.48;40.46;94724.66;5017106;28;20076;-75
2021/04/29 08:00:16;;;;;;;24.20;16.27;;;;;;;24.78;40.19;94757.88;5015615;28;20034;-74
2021/04/29 08:02:42;;;;;;;26.17;18.00;;;;;;;24.25;41.14;94712.63;5017613;28;20075;-75
2021/04/29 08:05:08;;;;;;;23.10;15.52;;;;;;;24.38;40.58;94715.41;5015042;28;20033;-75
2021/04/29 08:07:33;;;;;;;22.00;15.25;;;;;;;24.45;39.67;94714.78;5016139;28;20060;-75
2021/04/29 08:09:58;;;;;;;22.83;14.60;;;;;;;24.83;40.10;94753.03;5005233;28;20026;-75
2021/04/29 08:12:24;;;;;;;23.10;14.75;;;;;;;24.52;40.03;94736.00;5016417;28;20030;-74
2021/04/29 08:14:49;;;;;;;20.83;13.70;;;;;;;24.74;40.01;94747.28;5015333;28;20076;-75
2021/04/29 08:17:15;;;;;;;22.70;13.95;;;;;;;24.48;39.73;94716.47;5014637;28;20079;-75
2021/04/29 08:19:40;;;;;;;23.92;13.90;;;;;;;24.68;39.30;94754.06;5015315;28;20099;-74
2021/04/29 08:22:06;;;;;;;22.52;13.98;;;;;;;24.64;39.84;94759.13;5016254;28;20468;-75
2021/04/29 08:24:31;;;;;;;25.33;14.45;;;;;;;24.52;39.93;94747.66;5006092;28;20099;-74
2021/04/29 08:26:57;;;;;;;25.73;14.35;;;;;;;24.40;40.80;94734.72;5014742;28;20018;-75
2021/04/29 08:29:23;;;;;;;19.80;12.75;;;;;;;24.52;40.67;94746.94;5014765;28;20083;-75
2021/04/29 08:31:49;;;;;;;20.58;13.70;;;;;;;24.41;41.15;94730.75;5016897;28;20029;-74
2021/04/29 08:34:14;;;;;;;24.95;13.90;;;;;;;24.72;40.97;94749.78;5011618;28;20083;-75
2021/04/29 08:36:40;;;;;;;28.48;15.20;;;;;;;24.74;40.20;94749.25;5034051;28;20025;-75
2021/04/29 08:39:05;;;;;;;21.08;14.18;;;;;;;24.65;40.57;94723.09;5036069;28;20032;-74
2021/04/29 08:41:31;;;;;;;18.67;12.23;;;;;;;24.87;40.65;94745.28;5034538;28;20056;-75
2021/04/29 08:43:57;;;;;;;24.92;14.98;;;;;;;24.99;40.02;94735.63;5035922;28;20455;-75
2021/04/29 08:46:22;;;;;;;22.90;14.38;;;;;;;24.69;40.23;94723.50;5033984;28;20028;-76
2021/04/29 08:48:55;;;;;;;21.40;13.82;;;;;;;24.71;40.12;94720.25;5035205;28;20812;-75
2021/04/29 08:51:21;;;;;;;20.00;12.70;;;;;;;25.09;40.32;94727.75;5035075;28;20029;-76
2021/04/29 08:53:48;;;;;;;20.63;12.88;;;;;;;24.94;39.60;94700.91;5035931;28;20729;-76
2021/04/29 08:56:14;;;;;;;23.50;13.35;;;;;;;24.99;39.42;94705.59;5023406;28;20025;-74
2021/04/29 08:58:39;;;;;;;20.65;13.55;;;;;;;25.08;39.33;94721.56;5025477;28;20400;-74
2021/04/29 09:01:05;;;;;;;23.13;14.90;;;;;;;24.95;39.57;94696.94;5035697;28;20029;-74
2021/04/29 09:03:34;;;;;;;21.52;13.38;;;;;;;25.07;39.67;94736.47;5025791;28;20029;-73
2021/04/29 09:06:00;;;;;;;18.38;12.23;;;;;;;24.98;39.68;94723.19;5017997;28;20029;-75
2021/04/29 09:08:29;;;;;;;21.35;14.15;;;;;;;24.94;39.40;94706.38;5051398;28;20492;-74
2021/04/29 09:11:07;;;;;;;24.83;14.45;;;;;;;24.82;39.78;94716.06;5035116;28;20044;-77
2021/04/29 09:13:33;;;;;;;21.65;12.88;;;;;;;24.68;39.95;94699.47;5034085;28;20040;-76
2021/04/29 09:16:08;;;;;;;22.08;12.85;;;;;;;24.92;39.61;94706.19;5024122;28;20035;-76
2021/04/29 09:18:34;;;;;;;18.98;12.73;;;;;;;25.05;39.34;94708.94;5036588;28;20025;-75
2021/04/29 09:21:07;;;;;;;20.20;12.35;;;;;;;25.17;39.35;94702.00;5034553;28;20934;-76
2021/04/29 09:23:37;;;;;;;19.55;12.10;;;;;;;25.08;40.00;94699.69;5034881;28;20037;-71
2021/04/29 09:26:07;;;;;;;18.92;12.20;;;;;;;25.34;39.79;94694.16;5034334;28;20112;-75
2021/04/29 09:28:52;;;;;;;19.58;12.18;;;;;;;25.40;39.37;94697.50;5033685;28;20030;-75
2021/04/29 09:31:19;;;;;;;19.35;11.73;;;;;;;25.41;39.24;94693.50;5034865;28;20089;-75
2021/04/29 09:33:46;;;;;;;21.25;12.93;;;;;;;25.32;39.05;94663.91;5034015;28;20021;-76
2021/04/29 09:36:28;;;;;;;17.02;11.90;;;;;;;25.31;38.75;94678.81;5031802;28;20501;-75
2021/04/29 09:39:02;;;;;;;17.17;11.10;;;;;;;25.49;38.73;94669.72;5034990;28;20075;-75
2021/04/29 09:41:34;;;;;;;18.02;10.75;;;;;;;25.54;38.19;94663.38;5033816;28;20056;-78
2021/04/29 09:44:02;;;;;;;20.70;11.05;;;;;;;25.79;37.86;94700.88;5034945;28;20033;-78
2021/04/29 09:46:42;;;;;;;18.73;11.27;;;;;;;25.85;38.15;94699.47;5035413;28;20224;-78
2021/04/29 09:49:24;;;;;;;17.83;11.10;;;;;;;25.70;37.86;94670.53;5035720;28;20051;-77
2021/04/29 09:51:54;;;;;;;16.92;11.13;;;;;;;26.05;38.28;94701.50;5023436;28;20550;-76
2021/04/29 09:54:38;;;;;;;17.45;10.60;;;;;;;25.86;37.52;94638.03;5032869;28;20121;-77
2021/04/29 09:57:08;;;;;;;15.98;10.13;;;;;;;26.12;37.48;94678.91;5034383;28;20028;-77
2021/04/29 09:59:46;;;;;;;18.15;10.43;;;;;;;26.11;37.29;94663.75;5033567;28;20025;-87
2021/04/29 10:02:12;;;;;;;18.05;10.65;;;;;;;26.09;37.40;94658.09;5035338;28;20063;-78
2021/04/29 10:04:38;;;;;;;13.30;9.70;;;;;;;26.38;37.25;94681.50;5025875;28;20033;-78
2021/04/29 10:07:04;;;;;;;15.60;9.90;;;;;;;26.31;37.54;94687.69;5053947;28;20083;-79
2021/04/29 10:09:31;;;;;;;13.65;9.20;;;;;;;26.46;37.33;94685.06;5038693;28;20441;-80
2021/04/29 10:11:59;;;;;;;15.88;8.52;;;;;;;26.52;37.19;94686.38;5040425;28;20135;-82
2021/04/29 10:14:25;;;;;;;17.98;9.32;;;;;;;26.60;37.12;94676.19;5028295;28;20021;-77
2021/04/29 10:16:50;;;;;;;16.27;8.98;;;;;;;26.14;36.97;94599.72;5039143;28;20039;-75
2021/04/29 10:19:16;;;;;;;14.43;8.07;;;;;;;26.32;36.67;94615.22;5036314;28;20034;-75
2021/04/29 10:21:41;;;;;;;14.32;8.63;;;;;;;26.74;37.43;94676.81;5037060;28;20432;-71
2021/04/29 10:24:09;;;;;;;14.75;7.93;;;;;;;26.80;37.42;94659.69;5038353;28;20027;-74
2021/04/29 10:26:34;;;;;;;13.40;8.05;;;;;;;26.61;37.43;94630.38;5037456;28;20030;-72
2021/04/29 10:29:06;;;;;;;11.35;7.43;;;;;;;26.42;37.66;94580.59;5027291;28;20029;-75
2021/04/29 10:31:33;;;;;;;13.18;7.75;;;;;;;27.01;37.12;94646.69;5037961;28;20506;-76
2021/04/29 10:34:01;;;;;;;12.85;6.32;;;;;;;27.03;37.42;94654.38;5035980;28;20122;-73
2021/04/29 10:36:43;;;;;;;11.10;7.43;;;;;;;27.01;37.17;94657.66;5036766;28;20063;-74
2021/04/29 10:39:09;;;;;;;11.82;7.07;;;;;;;27.09;36.88;94652.91;4997339;28;20045;-76
2021/04/29 10:41:34;;;;;;;19.55;8.68;;;;;;;27.19;36.71;94645.66;5037111;28;20067;-73
2021/04/29 10:44:16;;;;;;;14.25;7.35;;;;;;;27.16;36.82;94657.72;5038571;28;20026;-75
2021/04/29 10:46:46;;;;;;;10.48;6.30;;;;;;;27.26;36.75;94661.38;5038595;28;20032;-78
2021/04/29 10:49:15;;;;;;;11.68;6.90;;;;;;;26.95;37.22;94626.91;5039824;28;20493;-82
2021/04/29 10:51:44;;;;;;;10.85;6.63;;;;;;;26.80;37.13;94582.97;5037442;28;20044;-82
2021/04/29 10:54:12;;;;;;;10.30;6.25;;;;;;;27.36;37.00;94654.84;5038389;28;20061;-78
2021/04/29 10:56:38;;;;;;;11.00;6.32;;;;;;;27.26;36.89;94628.47;5037255;28;20037;-81
2021/04/29 10:59:13;;;;;;;9.98;6.47;;;;;;;27.36;37.04;94643.16;5035586;28;20452;-84
2021/04/29 11:01:45;;;;;;;12.40;6.50;;;;;;;27.53;36.81;94646.13;5034157;28;20136;-81
2021/04/29 11:04:20;;;;;;;10.25;6.55;;;;;;;27.59;36.75;94649.44;5027091;28;20595;-82
2021/04/29 11:06:47;;;;;;;9.20;6.22;;;;;;;27.31;36.95;94613.88;5038787;28;20030;-82
2021/04/29 11:09:17;;;;;;;9.95;6.82;;;;;;;27.60;36.87;94639.94;4985336;28;20053;-80
2021/04/29 11:11:42;;;;;;;;;;;;;;;27.58;36.93;94642.47;5041443;28;20064;-81
2021/04/29 11:14:11;;;;;;;9.70;5.87;;;;;;;27.62;36.88;94631.91;5035074;28;20721;-80
2021/04/29 11:16:57;;;;;;;8.52;5.70;;;;;;;27.66;36.75;94643.25;5037391;28;20855;-79
2021/04/29 11:19:42;;;;;;;10.57;6.78;;;;;;;27.67;36.48;94633.72;5036529;28;20058;-79
2021/04/29 11:22:09;;;;;;;9.75;5.95;;;;;;;27.73;36.64;94643.25;5036291;28;20029;-78
2021/04/29 11:24:36;;;;;;;9.88;5.63;;;;;;;27.57;36.47;94597.16;5037516;28;20065;-84
2021/04/29 11:27:01;;;;;;;9.45;5.97;;;;;;;27.87;36.72;94626.06;5019476;28;20035;-81